Time;durP1;ratioP1;P1;durP2;ratioP2;P2;SDS_P1;SDS_P2;PMS_P1;PMS_P2;Temp;Humidity;BMP_temperature;BMP_pressure;BME280_temperature;BME280_humidity;BME280_pressure;Samples;Min_cycle;Max_cycle;Signal;HPM_P1;HPM_P2
2023/06/08 00:01:58;;;;;;;4.80;1.80;;;11.90;99.90;;;;;;5050433;28;20041;-66
2023/06/08 00:04:30;;;;;;;3.35;2.15;;;11.90;99.90;;;;;;5033746;28;20041;-66
2023/06/08 00:06:57;;;;;;;4.68;2.30;;;11.90;99.90;;;;;;5051022;28;20049;-66
2023/06/08 00:09:23;;;;;;;2.85;1.45;;;11.90;99.90;;;;;;5050671;28;20041;-66
2023/06/08 00:11:49;;;;;;;6.13;1.85;;;11.80;99.90;;;;;;5049501;28;20468;-66
2023/06/08 00:14:17;;;;;;;3.40;1.48;;;11.80;99.90;;;;;;5050226;28;20048;-66
2023/06/08 00:16:43;;;;;;;4.10;2.03;;;11.80;99.90;;;;;;5050385;28;20047;-66
2023/06/08 00:19:08;;;;;;;3.28;1.35;;;11.80;99.90;;;;;;5049587;28;20036;-66
2023/06/08 00:21:36;;;;;;;5.65;2.60;;;11.80;99.90;;;;;;5050112;28;20076;-66
2023/06/08 00:24:02;;;;;;;4.60;2.70;;;11.80;99.90;;;;;;5051581;28;20393;-66
2023/06/08 00:26:28;;;;;;;3.33;1.60;;;11.80;99.90;;;;;;5049214;28;20052;-66
2023/06/08 00:28:54;;;;;;;5.95;2.33;;;11.70;99.90;;;;;;5049888;28;20045;-65
2023/06/08 00:31:20;;;;;;;7.03;1.75;;;11.70;99.90;;;;;;5049795;28;20045;-66
2023/06/08 00:33:46;;;;;;;8.65;1.98;;;11.70;99.90;;;;;;5049210;28;20048;-66
2023/06/08 00:36:13;;;;;;;7.82;2.67;;;11.70;99.90;;;;;;5033487;28;20037;-66
2023/06/08 00:38:38;;;;;;;3.47;2.25;;;11.70;99.90;;;;;;5051284;28;20037;-66
2023/06/08 00:41:06;;;;;;;3.20;1.50;;;11.60;99.90;;;;;;5050527;28;20497;-66
2023/06/08 00:43:32;;;;;;;3.38;1.70;;;11.60;99.90;;;;;;5049820;28;20044;-66
2023/06/08 00:45:58;;;;;;;6.65;2.08;;;11.60;99.90;;;;;;5049752;28;20041;-65
2023/06/08 00:48:25;;;;;;;8.48;2.20;;;11.60;99.90;;;;;;5049357;28;20083;-66
2023/06/08 00:50:53;;;;;;;4.18;2.03;;;11.60;99.90;;;;;;5048574;28;20567;-66
2023/06/08 00:53:20;;;;;;;3.65;2.03;;;11.60;99.90;;;;;;5050340;28;20496;-66
2023/06/08 00:55:50;;;;;;;4.40;2.17;;;11.50;99.90;;;;;;5050183;28;20037;-65
2023/06/08 00:58:17;;;;;;;9.50;2.03;;;11.50;99.90;;;;;;5050880;28;20033;-66
2023/06/08 01:00:46;;;;;;;2.60;1.17;;;11.60;99.90;;;;;;5050162;28;20056;-66
2023/06/08 01:03:15;;;;;;;7.40;2.03;;;11.60;99.90;;;;;;5049453;28;20041;-66
2023/06/08 01:05:44;;;;;;;3.80;1.80;;;11.60;99.90;;;;;;5050619;28;20283;-65
2023/06/08 01:08:16;;;;;;;4.53;1.80;;;11.60;99.90;;;;;;5050352;28;20114;-65
2023/06/08 01:10:54;;;;;;;11.38;2.47;;;11.60;99.90;;;;;;5049152;28;20049;-66
2023/06/08 01:13:47;;;;;;;3.72;1.92;;;11.60;99.90;;;;;;5049154;28;20045;-66
2023/06/08 01:16:17;;;;;;;4.20;1.40;;;11.70;99.90;;;;;;5048518;28;20566;-66
2023/06/08 01:18:44;;;;;;;5.38;1.83;;;11.60;99.90;;;;;;5050471;28;20037;-66
2023/06/08 01:21:30;;;;;;;4.50;2.20;;;11.70;99.90;;;;;;5032434;28;20501;-66
2023/06/08 01:23:59;;;;;;;4.05;1.73;;;11.70;99.90;;;;;;5048225;28;20094;-66
2023/06/08 01:26:28;;;;;;;7.47;1.83;;;11.60;99.90;;;;;;5048856;28;20524;-66
2023/06/08 01:28:55;;;;;;;3.40;1.33;;;11.70;99.90;;;;;;5048273;28;20123;-66
2023/06/08 01:31:21;;;;;;;4.57;2.22;;;11.70;99.90;;;;;;5032279;28;20577;-66
2023/06/08 01:33:47;;;;;;;4.43;2.33;;;11.70;99.90;;;;;;5050187;28;20159;-66
2023/06/08 01:36:21;;;;;;;6.90;1.67;;;11.60;99.90;;;;;;5049574;28;20043;-66
2023/06/08 01:39:01;;;;;;;6.00;1.80;;;11.60;99.90;;;;;;5048864;28;20052;-66
2023/06/08 01:41:32;;;;;;;7.00;2.00;;;11.60;99.90;;;;;;5048690;28;20675;-66
2023/06/08 01:43:59;;;;;;;8.13;1.90;;;11.60;99.90;;;;;;5049154;28;20049;-66
2023/06/08 01:46:28;;;;;;;9.93;1.85;;;11.50;99.90;;;;;;5048781;28;20044;-66
2023/06/08 01:48:58;;;;;;;3.15;1.38;;;11.60;99.90;;;;;;5048888;28;20040;-66
2023/06/08 01:51:26;;;;;;;3.97;1.70;;;11.50;99.90;;;;;;5047777;28;20269;-66
2023/06/08 01:54:02;;;;;;;4.63;1.63;;;11.50;99.90;;;;;;5048511;28;20056;-66
2023/06/08 01:56:30;;;;;;;3.20;1.95;;;11.50;99.90;;;;;;5031790;28;20037;-66
2023/06/08 01:58:56;;;;;;;10.02;2.67;;;11.50;99.90;;;;;;5048933;28;20098;-66
2023/06/08 02:01:22;;;;;;;2.90;1.73;;;11.50;99.90;;;;;;5049515;28;20053;-66
2023/06/08 02:03:48;;;;;;;4.53;1.73;;;11.50;99.90;;;;;;5048672;28;20037;-66
2023/06/08 02:06:14;;;;;;;3.72;2.10;;;11.40;99.90;;;;;;5049741;28;20052;-66
2023/06/08 02:08:40;;;;;;;6.78;2.22;;;11.40;99.90;;;;;;5048482;28;20132;-66
2023/06/08 02:11:06;;;;;;;7.00;3.45;;;11.40;99.90;;;;;;5047729;28;20124;-66
2023/06/08 02:13:34;;;;;;;5.20;2.70;;;11.40;99.90;;;;;;5049443;28;20072;-66
2023/06/08 02:16:01;;;;;;;5.65;2.58;;;11.30;99.90;;;;;;5032188;28;20045;-66
2023/06/08 02:18:26;;;;;;;7.90;2.58;;;11.40;99.90;;;;;;5047850;28;20393;-66
2023/06/08 02:20:53;;;;;;;7.38;2.28;;;11.40;99.90;;;;;;5048264;28;20132;-66
2023/06/08 02:23:18;;;;;;;4.18;2.17;;;11.40;99.90;;;;;;5049570;28;20044;-66
2023/06/08 02:25:46;;;;;;;5.95;3.03;;;11.40;99.90;;;;;;5047520;28;20417;-66
2023/06/08 02:28:11;;;;;;;10.40;3.97;;;11.40;99.90;;;;;;5048335;28;20086;-66
2023/06/08 02:30:37;;;;;;;7.78;2.63;;;11.40;99.90;;;;;;5049221;28;20041;-66
2023/06/08 02:33:03;;;;;;;7.90;2.90;;;11.40;99.90;;;;;;5047776;28;20036;-66
2023/06/08 02:35:29;;;;;;;5.60;2.40;;;11.40;99.90;;;;;;5048134;28;20556;-66
2023/06/08 02:37:55;;;;;;;11.10;3.05;;;11.40;99.90;;;;;;5031494;28;20041;-66
2023/06/08 02:40:21;;;;;;;5.05;2.35;;;11.40;99.90;;;;;;5049133;28;20044;-66
2023/06/08 02:42:47;;;;;;;11.00;3.20;;;11.40;99.90;;;;;;5048115;28;20131;-66
2023/06/08 02:45:13;;;;;;;5.45;2.22;;;11.40;99.90;;;;;;5049485;28;20037;-66
2023/06/08 02:47:38;;;;;;;7.13;2.53;;;11.40;99.90;;;;;;5047736;28;20064;-66
2023/06/08 02:50:04;;;;;;;7.30;2.22;;;11.40;99.90;;;;;;5049281;28;20382;-66
2023/06/08 02:52:30;;;;;;;8.15;3.35;;;11.40;99.90;;;;;;5047962;28;20053;-66
2023/06/08 02:54:56;;;;;;;5.55;2.45;;;11.40;99.90;;;;;;5047282;28;20036;-66
2023/06/08 02:57:22;;;;;;;5.05;2.15;;;11.40;99.90;;;;;;5048067;28;20043;-66
2023/06/08 02:59:48;;;;;;;5.10;2.72;;;11.40;99.90;;;;;;5048834;28;20481;-66
2023/06/08 03:02:14;;;;;;;10.60;3.08;;;11.40;99.90;;;;;;5049280;28;20438;-64
2023/06/08 03:04:43;;;;;;;7.32;3.25;;;11.40;99.90;;;;;;5031216;28;20049;-66
2023/06/08 03:07:10;;;;;;;6.15;2.58;;;11.50;99.90;;;;;;5047243;28;20048;-66
2023/06/08 03:09:36;;;;;;;5.72;3.28;;;11.40;99.90;;;;;;5047771;28;20075;-66
2023/06/08 03:12:02;;;;;;;11.85;2.75;;;11.50;99.90;;;;;;5049312;28;20063;-66
2023/06/08 03:14:29;;;;;;;5.78;3.10;;;11.50;99.90;;;;;;5048067;28;20043;-66
2023/06/08 03:17:02;;;;;;;6.88;3.20;;;11.50;99.90;;;;;;5052522;28;20679;-66
2023/06/08 03:19:30;;;;;;;10.18;3.65;;;11.50;99.90;;;;;;5034970;28;20059;-66
2023/06/08 03:22:04;;;;;;;6.40;2.90;;;11.50;99.90;;;;;;5051901;28;20137;-66
2023/06/08 03:24:32;;;;;;;4.82;1.88;;;11.50;99.90;;;;;;5052589;28;20045;-66
2023/06/08 03:26:59;;;;;;;5.78;2.45;;;11.50;99.90;;;;;;5052614;28;20040;-66
2023/06/08 03:29:26;;;;;;;5.78;2.40;;;11.50;99.90;;;;;;5050654;28;20135;-66
2023/06/08 03:31:52;;;;;;;6.70;2.58;;;11.50;99.90;;;;;;5052451;28;20045;-66
2023/06/08 03:34:18;;;;;;;10.35;2.97;;;11.50;99.90;;;;;;5052087;28;20041;-66
2023/06/08 03:36:44;;;;;;;6.95;2.50;;;11.50;99.90;;;;;;5050278;28;20045;-66
2023/06/08 03:39:11;;;;;;;6.72;2.50;;;11.50;99.90;;;;;;5051951;28;20124;-66
2023/06/08 03:41:37;;;;;;;10.02;2.40;;;11.50;99.90;;;;;;5051293;28;20041;-66
2023/06/08 03:44:03;;;;;;;8.35;3.22;;;11.50;99.90;;;;;;5052178;28;20048;-66
2023/06/08 03:46:29;;;;;;;6.68;2.75;;;11.50;99.90;;;;;;5034437;28;20402;-66
2023/06/08 03:48:55;;;;;;;7.00;1.88;;;11.60;99.90;;;;;;5051488;28;20037;-66
2023/06/08 03:51:21;;;;;;;4.65;1.98;;;11.60;99.90;;;;;;5050385;28;20084;-66
2023/06/08 03:53:51;;;;;;;3.17;2.00;;;11.60;99.90;;;;;;5052114;28;20025;-66
2023/06/08 03:56:17;;;;;;;6.05;2.55;;;11.60;99.90;;;;;;5050424;28;20037;-66
2023/06/08 03:58:44;;;;;;;4.15;1.85;;;11.60;99.90;;;;;;5050577;28;20068;-65
2023/06/08 04:01:11;;;;;;;7.88;2.35;;;11.60;99.90;;;;;;5033816;28;20051;-65
2023/06/08 04:03:38;;;;;;;3.83;2.70;;;11.60;99.90;;;;;;5033550;28;20405;-65
2023/06/08 04:06:08;;;;;;;3.78;2.00;;;11.60;99.90;;;;;;5050374;28;20052;-67
2023/06/08 04:08:40;;;;;;;6.88;2.58;;;11.70;99.90;;;;;;5034011;28;20041;-66
2023/06/08 04:11:07;;;;;;;4.80;2.30;;;11.70;99.90;;;;;;5049919;28;20044;-66
2023/06/08 04:13:36;;;;;;;6.68;1.95;;;11.60;99.90;;;;;;5050424;28;20041;-66
2023/06/08 04:16:07;;;;;;;4.13;1.90;;;11.70;99.90;;;;;;5050142;28;20115;-66
2023/06/08 04:18:33;;;;;;;3.30;2.10;;;11.70;99.90;;;;;;5032997;28;20033;-66
2023/06/08 04:20:58;;;;;;;6.10;2.00;;;11.70;99.90;;;;;;5050300;28;20052;-67
2023/06/08 04:23:27;;;;;;;5.20;1.77;;;11.70;99.90;;;;;;5051196;28;20041;-66
2023/06/08 04:25:53;;;;;;;7.38;2.55;;;11.80;99.90;;;;;;5049233;28;20040;-66
2023/06/08 04:28:19;;;;;;;8.45;2.78;;;11.80;99.90;;;;;;5050097;28;20041;-66
2023/06/08 04:30:45;;;;;;;7.90;1.98;;;11.80;99.90;;;;;;5049449;28;20643;-66
2023/06/08 04:33:11;;;;;;;5.45;2.55;;;11.80;99.90;;;;;;5033535;28;20124;-66
2023/06/08 04:35:37;;;;;;;3.80;2.08;;;11.90;99.90;;;;;;5059412;28;20036;-66
2023/06/08 04:38:03;;;;;;;5.82;2.67;;;11.90;99.90;;;;;;5060099;28;20100;-66
2023/06/08 04:40:33;;;;;;;4.78;2.10;;;12.00;99.90;;;;;;5049757;28;20127;-66
2023/06/08 04:42:59;;;;;;;7.80;3.10;;;12.00;99.90;;;;;;5048953;28;20099;-66
2023/06/08 04:45:25;;;;;;;3.72;2.05;;;12.00;99.90;;;;;;5056587;28;20200;-66
2023/06/08 04:47:51;;;;;;;4.55;2.30;;;12.00;99.90;;;;;;5059396;28;20180;-66
2023/06/08 04:50:18;;;;;;;9.75;3.17;;;12.10;99.90;;;;;;5041945;28;20060;-66
2023/06/08 04:52:45;;;;;;;4.25;2.22;;;12.10;99.90;;;;;;5059253;28;20098;-66
2023/06/08 04:55:16;;;;;;;3.88;2.33;;;12.10;99.90;;;;;;5069248;28;20441;-66
2023/06/08 04:57:42;;;;;;;6.32;2.72;;;12.10;99.90;;;;;;5069445;28;20075;-66
2023/06/08 05:00:09;;;;;;;4.65;2.47;;;12.10;99.90;;;;;;5068728;28;20041;-67
2023/06/08 05:02:39;;;;;;;9.70;2.58;;;12.10;99.90;;;;;;5069598;28;20095;-66
2023/06/08 05:05:05;;;;;;;4.87;1.97;;;12.20;99.90;;;;;;5069657;28;20484;-68
2023/06/08 05:07:31;;;;;;;6.80;2.38;;;12.30;99.90;;;;;;5052126;28;20763;-67
2023/06/08 05:10:01;;;;;;;4.80;2.72;;;12.30;99.90;;;;;;5052326;28;20504;-66
2023/06/08 05:12:28;;;;;;;5.75;2.15;;;12.40;99.90;;;;;;5069299;28;20071;-65
2023/06/08 05:14:57;;;;;;;6.45;2.65;;;12.40;99.90;;;;;;5069392;28;20477;-68
2023/06/08 05:17:23;;;;;;;5.35;2.03;;;12.50;99.90;;;;;;5070088;28;20514;-67
2023/06/08 05:19:50;;;;;;;3.55;1.98;;;12.50;99.90;;;;;;5068258;28;20119;-67
2023/06/08 05:22:16;;;;;;;4.80;1.80;;;12.50;99.90;;;;;;5069077;28;20075;-67
2023/06/08 05:24:42;;;;;;;7.05;2.03;;;12.50;99.90;;;;;;5070345;28;20091;-67
2023/06/08 05:27:08;;;;;;;5.18;1.98;;;12.60;99.90;;;;;;5068533;28;20083;-68
2023/06/08 05:29:35;;;;;;;5.75;2.30;;;12.60;99.90;;;;;;5068735;28;20052;-66
2023/06/08 05:32:01;;;;;;;4.30;2.72;;;12.70;99.90;;;;;;5070044;28;20473;-67
2023/06/08 05:34:27;;;;;;;6.70;2.17;;;12.70;99.90;;;;;;5068329;28;20040;-65
2023/06/08 05:36:54;;;;;;;3.22;1.73;;;12.70;99.90;;;;;;5069690;28;20042;-67
2023/06/08 05:39:21;;;;;;;7.38;2.90;;;12.70;99.90;;;;;;5068339;28;20109;-67
2023/06/08 05:41:47;;;;;;;3.35;1.52;;;12.70;99.90;;;;;;5067398;28;20132;-67
2023/06/08 05:44:13;;;;;;;5.13;2.63;;;12.70;99.90;;;;;;5067672;28;20442;-64
2023/06/08 05:46:40;;;;;;;2.90;1.63;;;12.80;99.90;;;;;;5067710;28;20130;-66
2023/06/08 05:49:06;;;;;;;3.75;2.88;;;12.90;99.90;;;;;;5066724;28;20493;-66
2023/06/08 05:51:32;;;;;;;3.95;2.25;;;13.00;99.90;;;;;;5067215;28;20135;-67
2023/06/08 05:53:58;;;;;;;4.43;2.10;;;13.20;99.90;;;;;;5067551;28;20040;-67
2023/06/08 05:56:25;;;;;;;2.88;1.65;;;13.30;99.90;;;;;;5066920;28;20033;-67
2023/06/08 05:58:51;;;;;;;2.90;1.48;;;13.40;99.90;;;;;;5036440;28;20040;-67
2023/06/08 06:01:19;;;;;;;2.95;1.88;;;13.60;99.90;;;;;;5047003;28;20493;-67
2023/06/08 06:03:45;;;;;;;2.95;1.73;;;13.70;99.90;;;;;;5065527;28;20115;-67
2023/06/08 06:06:11;;;;;;;2.05;1.45;;;13.90;99.90;;;;;;5047158;28;20040;-67
2023/06/08 06:08:37;;;;;;;7.28;1.80;;;14.00;99.90;;;;;;5046478;28;20398;-67
2023/06/08 06:11:03;;;;;;;3.58;2.15;;;14.10;99.90;;;;;;5047135;28;20485;-66
2023/06/08 06:13:31;;;;;;;6.47;2.28;;;14.20;99.90;;;;;;5031470;28;20048;-67
2023/06/08 06:15:58;;;;;;;4.65;2.83;;;14.20;99.90;;;;;;5051969;28;20063;-67
2023/06/08 06:18:24;;;;;;;3.28;1.70;;;14.20;99.90;;;;;;5052643;28;20041;-67
2023/06/08 06:20:50;;;;;;;3.35;2.35;;;14.30;99.90;;;;;;5048220;28;20044;-67
2023/06/08 06:23:16;;;;;;;5.40;2.20;;;14.40;99.90;;;;;;5030674;28;20063;-67
2023/06/08 06:25:42;;;;;;;5.15;2.13;;;14.50;99.90;;;;;;5048911;28;20477;-66
2023/06/08 06:28:08;;;;;;;6.00;2.53;;;14.60;99.90;;;;;;5047830;28;20040;-67
2023/06/08 06:30:35;;;;;;;4.45;2.00;;;14.70;99.90;;;;;;5030765;28;20124;-67
2023/06/08 06:33:01;;;;;;;8.48;2.08;;;14.80;99.90;;;;;;5059780;28;20400;-67
2023/06/08 06:35:27;;;;;;;10.85;2.88;;;15.00;99.90;;;;;;5068126;28;20036;-67
2023/06/08 06:37:54;;;;;;;6.47;2.13;;;15.20;99.90;;;;;;5050432;28;20044;-68
2023/06/08 06:40:21;;;;;;;2.08;1.63;;;15.40;99.90;;;;;;5067717;28;20115;-67
2023/06/08 06:42:46;;;;;;;3.53;1.55;;;15.60;99.90;;;;;;5069423;28;20107;-67
2023/06/08 06:45:13;;;;;;;3.47;1.80;;;15.70;99.90;;;;;;5067566;28;20461;-68
2023/06/08 06:47:39;;;;;;;5.40;1.25;;;15.90;99.90;;;;;;5068187;28;20041;-65
2023/06/08 06:50:06;;;;;;;6.78;1.33;;;16.10;99.90;;;;;;5070433;28;20059;-72
2023/06/08 06:52:33;;;;;;;3.85;1.95;;;16.20;99.90;;;;;;5072618;28;20036;-66
2023/06/08 06:55:01;;;;;;;4.45;1.90;;;16.30;99.90;;;;;;5055607;28;20649;-69
2023/06/08 06:57:28;;;;;;;5.53;1.67;;;16.40;99.90;;;;;;5052765;28;20041;-68
2023/06/08 06:59:55;;;;;;;3.75;1.33;;;16.60;99.90;;;;;;5051178;28;20069;-68
2023/06/08 07:02:23;;;;;;;3.05;1.40;;;16.90;99.90;;;;;;5051769;28;20045;-68
2023/06/08 07:04:52;;;;;;;7.68;1.70;;;17.10;99.90;;;;;;5052267;28;20045;-68
2023/06/08 07:07:18;;;;;;;4.18;1.50;;;17.30;99.90;;;;;;5063617;28;20091;-68
2023/06/08 07:09:44;;;;;;;3.33;1.35;;;17.60;99.90;;;;;;5071766;28;20037;-67
2023/06/08 07:12:10;;;;;;;5.88;1.63;;;17.80;99.90;;;;;;5070482;28;20531;-68
2023/06/08 07:14:36;;;;;;;4.47;1.58;;;17.90;99.90;;;;;;5071405;28;20070;-68
2023/06/08 07:17:02;;;;;;;3.22;1.48;;;18.10;99.90;;;;;;5071238;28;20451;-67
2023/06/08 07:19:28;;;;;;;4.82;1.67;;;18.30;99.90;;;;;;5070765;28;20040;-68
2023/06/08 07:21:54;;;;;;;4.03;1.63;;;18.40;99.90;;;;;;5072445;28;20040;-68
2023/06/08 07:24:21;;;;;;;3.67;1.52;;;18.60;99.90;;;;;;5061822;28;20676;-67
2023/06/08 07:26:46;;;;;;;6.38;1.83;;;18.80;99.90;;;;;;5049093;28;20783;-68
2023/06/08 07:29:13;;;;;;;4.15;1.33;;;19.00;99.90;;;;;;5044145;28;20087;-67
2023/06/08 07:31:39;;;;;;;4.20;1.67;;;19.10;99.90;;;;;;5069933;28;20036;-66
2023/06/08 07:34:06;;;;;;;4.00;1.80;;;19.20;99.90;;;;;;5070431;28;20033;-66
2023/06/08 07:36:35;;;;;;;2.03;1.20;;;19.20;99.90;;;;;;5069730;28;20131;-68
2023/06/08 07:39:03;;;;;;;2.60;1.20;;;19.20;99.90;;;;;;5069813;28;20154;-68
2023/06/08 07:41:29;;;;;;;2.53;1.27;;;19.30;99.90;;;;;;5069360;28;20049;-66
2023/06/08 07:43:55;;;;;;;2.40;1.10;;;19.40;99.90;;;;;;5069830;28;20048;-68
2023/06/08 07:46:21;;;;;;;8.55;1.92;;;19.30;99.90;;;;;;5044538;28;20042;-68
2023/06/08 07:48:47;;;;;;;6.32;1.55;;;19.30;99.90;;;;;;5058205;28;20045;-66
2023/06/08 07:51:14;;;;;;;2.55;1.40;;;19.50;99.90;;;;;;5050278;28;20064;-67
2023/06/08 07:53:41;;;;;;;3.00;1.13;;;19.70;99.90;;;;;;5052867;28;20047;-67
2023/06/08 07:56:07;;;;;;;3.58;1.48;;;19.90;99.90;;;;;;5050672;28;20037;-67
2023/06/08 07:58:33;;;;;;;2.83;1.15;;;20.00;99.90;;;;;;5050351;28;20048;-68
2023/06/08 08:01:00;;;;;;;3.45;1.10;;;20.20;99.90;;;;;;5050559;28;20500;-67
2023/06/08 08:03:28;;;;;;;2.97;1.35;;;20.30;99.90;;;;;;5050427;28;20637;-68
2023/06/08 08:05:53;;;;;;;2.70;1.65;;;20.40;99.90;;;;;;5058534;28;20048;-66
2023/06/08 08:08:20;;;;;;;3.38;1.50;;;20.60;99.90;;;;;;5049827;28;20518;-68
2023/06/08 08:10:46;;;;;;;3.03;1.13;;;20.70;99.90;;;;;;5051263;28;20440;-67
2023/06/08 08:13:12;;;;;;;3.17;1.25;;;20.70;99.90;;;;;;5049354;28;20106;-68
2023/06/08 08:15:41;;;;;;;3.03;1.13;;;20.90;99.90;;;;;;5049866;28;20041;-68
2023/06/08 08:18:07;;;;;;;4.18;1.27;;;21.10;99.90;;;;;;5049960;28;20048;-67
2023/06/08 08:20:33;;;;;;;3.53;1.60;;;21.20;99.90;;;;;;5049669;28;20040;-68
2023/06/08 08:22:59;;;;;;;8.63;1.77;;;21.20;99.90;;;;;;5049728;28;20132;-67
2023/06/08 08:25:25;;;;;;;6.30;1.20;;;21.30;99.90;;;;;;5050300;28;20405;-67
2023/06/08 08:27:51;;;;;;;4.78;1.38;;;21.40;99.90;;;;;;5048622;28;20040;-68
2023/06/08 08:30:17;;;;;;;2.75;1.15;;;21.40;99.90;;;;;;5047158;28;20056;-68
2023/06/08 08:32:43;;;;;;;4.15;1.00;;;21.50;99.90;;;;;;5048886;28;20386;-67
2023/06/08 08:35:12;;;;;;;2.38;1.30;;;21.60;99.90;;;;;;5030740;28;20537;-67
2023/06/08 08:37:38;;;;;;;;;;;21.80;99.90;;;;;;5048406;28;20064;-67
2023/06/08 08:40:05;;;;;;;2.88;1.40;;;22.00;99.90;;;;;;5047510;28;19921;-68
2023/06/08 08:42:35;;;;;;;3.60;1.00;;;22.00;99.90;;;;;;5055412;28;20041;-68
2023/06/08 08:45:07;;;;;;;3.75;1.10;;;22.20;99.90;;;;;;5047643;28;20048;-68
2023/06/08 08:47:33;;;;;;;2.80;1.42;;;22.30;99.90;;;;;;5048433;28;20047;-67
2023/06/08 08:50:04;;;;;;;4.88;1.27;;;22.30;99.90;;;;;;5047694;28;20136;-66
2023/06/08 08:52:33;;;;;;;2.92;1.10;;;22.30;99.90;;;;;;5048533;28;20447;-68
2023/06/08 08:55:00;;;;;;;5.28;1.73;;;22.40;99.90;;;;;;5048626;28;20455;-67
2023/06/08 08:57:30;;;;;;;2.53;1.02;;;22.50;99.90;;;;;;5048991;28;20033;-65
2023/06/08 08:59:57;;;;;;;3.97;1.75;;;22.50;99.90;;;;;;5048607;28;20183;-67
2023/06/08 09:02:23;;;;;;;5.03;1.30;;;22.70;99.90;;;;;;5031536;28;20125;-67
2023/06/08 09:04:51;;;;;;;2.50;1.00;;;22.90;99.90;;;;;;5057568;28;20505;-67
2023/06/08 09:07:21;;;;;;;4.00;1.20;;;23.20;99.90;;;;;;5049026;28;20041;-65
2023/06/08 09:10:14;;;;;;;4.43;1.80;;;23.40;99.90;;;;;;5048716;28;20044;-67
2023/06/08 09:12:41;;;;;;;2.47;1.27;;;23.60;99.90;;;;;;5048442;28;20497;-67
2023/06/08 09:15:09;;;;;;;3.35;1.25;;;23.70;99.90;;;;;;5049985;28;20123;-67
2023/06/08 09:17:38;;;;;;;1.98;0.95;;;23.90;99.90;;;;;;5047842;28;20037;-67
2023/06/08 09:20:08;;;;;;;3.40;1.10;;;24.00;99.90;;;;;;5047784;28;20041;-67
2023/06/08 09:22:37;;;;;;;2.05;1.08;;;24.20;99.90;;;;;;5049307;28;20048;-67
2023/06/08 09:25:07;;;;;;;4.25;1.00;;;24.30;99.90;;;;;;5048418;28;20668;-68
2023/06/08 09:27:33;;;;;;;4.53;1.77;;;24.40;99.90;;;;;;5048237;28;20037;-68
2023/06/08 09:30:02;;;;;;;1.73;1.08;;;24.40;99.90;;;;;;5056687;28;20051;-66
2023/06/08 09:32:33;;;;;;;4.13;1.10;;;24.50;99.90;;;;;;5049318;28;20191;-67
2023/06/08 09:35:03;;;;;;;1.70;0.93;;;24.50;99.80;;;;;;5048614;28;20695;-67
2023/06/08 09:37:36;;;;;;;5.78;1.30;;;24.50;99.90;;;;;;5060775;28;20428;-67
2023/06/08 09:40:09;;;;;;;3.50;1.40;;;24.50;97.10;;;;;;5051013;28;20037;-68
2023/06/08 09:42:50;;;;;;;4.97;1.55;;;24.50;98.40;;;;;;5041509;28;20052;-68
2023/06/08 09:45:20;;;;;;;4.50;1.30;;;24.60;98.40;;;;;;5047214;28;20500;-67
2023/06/08 09:47:47;;;;;;;3.65;1.15;;;24.70;98.50;;;;;;5047828;28;20045;-68
2023/06/08 09:50:13;;;;;;;7.93;1.95;;;24.80;98.40;;;;;;5046986;28;20057;-67
2023/06/08 09:52:41;;;;;;;4.70;1.48;;;24.80;98.50;;;;;;5047546;28;20044;-68
2023/06/08 09:55:08;;;;;;;3.90;1.13;;;25.10;98.30;;;;;;5047593;28;20508;-69
2023/06/08 09:57:36;;;;;;;5.05;1.15;;;25.40;98.20;;;;;;5047509;28;20116;-68
2023/06/08 10:00:14;;;;;;;1.77;0.85;;;25.40;97.70;;;;;;5045950;28;20040;-66
2023/06/08 10:03:00;;;;;;;3.13;1.30;;;25.50;97.10;;;;;;5046972;28;20489;-69
2023/06/08 10:05:33;;;;;;;5.53;1.80;;;25.50;96.30;;;;;;5045808;28;20055;-66
2023/06/08 10:08:00;;;;;;;4.82;1.35;;;25.60;96.80;;;;;;5046984;28;20420;-67
2023/06/08 10:10:31;;;;;;;2.63;1.30;;;25.50;96.20;;;;;;5046700;28;20311;-67
2023/06/08 10:12:57;;;;;;;2.20;1.30;;;25.60;94.80;;;;;;5046890;28;20561;-67
2023/06/08 10:15:24;;;;;;;5.30;1.23;;;25.70;95.90;;;;;;5047519;28;20486;-66
2023/06/08 10:17:51;;;;;;;3.17;1.40;;;25.80;95.70;;;;;;5047216;28;20122;-67
2023/06/08 10:20:17;;;;;;;5.10;1.40;;;25.90;94.80;;;;;;5046854;28;20111;-66
2023/06/08 10:22:45;;;;;;;2.70;1.35;;;25.90;93.40;;;;;;5044786;28;20040;-67
2023/06/08 10:25:13;;;;;;;2.05;1.13;;;25.80;93.20;;;;;;5060957;28;20044;-67
2023/06/08 10:27:47;;;;;;;4.18;1.17;;;25.80;93.90;;;;;;5068654;28;20049;-66
2023/06/08 10:30:28;;;;;;;6.03;1.55;;;25.90;93.50;;;;;;5070906;28;20048;-67
2023/06/08 10:33:07;;;;;;;4.05;1.20;;;25.80;92.40;;;;;;5071025;28;20099;-67
2023/06/08 10:35:32;;;;;;;2.88;1.05;;;25.80;93.50;;;;;;5070234;28;20589;-67
2023/06/08 10:38:11;;;;;;;4.28;0.90;;;25.70;93.10;;;;;;5070571;28;20037;-67
2023/06/08 10:40:45;;;;;;;1.83;1.10;;;25.80;92.90;;;;;;5071833;28;20246;-66
2023/06/08 10:43:11;;;;;;;2.05;0.95;;;26.00;93.20;;;;;;5053405;28;20043;-67
2023/06/08 10:45:39;;;;;;;2.90;1.00;;;26.10;92.50;;;;;;5062189;28;20123;-68
2023/06/08 10:48:10;;;;;;;2.53;1.08;;;26.20;92.50;;;;;;5073163;28;20040;-67
2023/06/08 10:50:37;;;;;;;2.97;1.15;;;26.10;92.50;;;;;;5070916;28;20155;-67
2023/06/08 10:53:04;;;;;;;3.25;1.23;;;26.10;92.30;;;;;;5054981;28;20128;-67
2023/06/08 10:55:30;;;;;;;4.50;1.55;;;26.10;92.50;;;;;;5072148;28;20166;-67
2023/06/08 10:58:06;;;;;;;2.70;0.82;;;26.20;92.70;;;;;;5060493;28;20040;-66
2023/06/08 11:00:33;;;;;;;2.65;1.00;;;26.30;92.10;;;;;;5061496;28;20040;-65
2023/06/08 11:03:04;;;;;;;2.22;1.00;;;26.40;92.30;;;;;;5060960;28;20044;-66
2023/06/08 11:05:34;;;;;;;1.63;0.90;;;26.50;91.40;;;;;;5049173;28;20227;-66
2023/06/08 11:08:01;;;;;;;5.57;1.92;;;26.80;91.50;;;;;;5049418;28;20057;-66
2023/06/08 11:10:30;;;;;;;3.45;1.00;;;26.70;89.40;;;;;;5033334;28;20435;-65
2023/06/08 11:13:10;;;;;;;2.45;1.10;;;26.40;88.60;;;;;;5033612;28;20072;-67
2023/06/08 11:15:41;;;;;;;2.50;1.15;;;26.20;88.50;;;;;;5050376;28;20044;-66
2023/06/08 11:18:11;;;;;;;2.53;0.95;;;26.00;90.40;;;;;;5049521;28;20041;-66
2023/06/08 11:20:39;;;;;;;2.72;1.27;;;26.20;90.60;;;;;;5051640;28;20329;-66
2023/06/08 11:23:10;;;;;;;5.03;1.70;;;26.30;90.00;;;;;;5050000;28;20575;-66
2023/06/08 11:25:37;;;;;;;4.95;2.05;;;26.40;90.80;;;;;;5049323;28;20283;-66
2023/06/08 11:28:05;;;;;;;2.13;1.10;;;26.50;90.10;;;;;;5049977;28;20055;-67
2023/06/08 11:30:31;;;;;;;3.60;1.38;;;26.50;90.60;;;;;;5050418;28;20049;-67
2023/06/08 11:32:58;;;;;;;2.63;0.90;;;26.60;90.70;;;;;;5049814;28;20052;-66
2023/06/08 11:35:25;;;;;;;2.33;1.10;;;26.60;90.80;;;;;;5048292;28;20512;-67
2023/06/08 11:38:01;;;;;;;8.15;1.65;;;26.60;90.30;;;;;;5050468;28;20041;-66
2023/06/08 11:40:29;;;;;;;4.45;1.35;;;26.40;90.10;;;;;;5050434;28;20060;-67
2023/06/08 11:42:56;;;;;;;2.28;1.08;;;26.40;90.40;;;;;;5050337;28;20363;-67
2023/06/08 11:45:23;;;;;;;2.15;0.85;;;26.00;89.00;;;;;;5050312;28;20099;-67
2023/06/08 11:47:53;;;;;;;4.18;0.95;;;25.50;88.60;;;;;;5049925;28;20040;-66
2023/06/08 11:50:20;;;;;;;3.22;1.20;;;25.10;90.00;;;;;;5050833;28;20063;-66
2023/06/08 11:52:46;;;;;;;5.57;1.20;;;24.80;90.30;;;;;;5050127;28;20511;-66
2023/06/08 11:55:17;;;;;;;1.65;0.77;;;24.70;90.10;;;;;;5048864;28;20507;-65
2023/06/08 11:57:51;;;;;;;2.85;1.08;;;24.60;89.00;;;;;;5031054;28;20036;-66
2023/06/08 12:00:24;;;;;;;5.45;1.13;;;24.60;88.90;;;;;;5048123;28;20539;-67
2023/06/08 12:02:51;;;;;;;3.05;1.17;;;24.60;89.60;;;;;;5049101;28;20467;-66
2023/06/08 12:05:19;;;;;;;2.95;1.33;;;24.80;90.20;;;;;;5047297;28;20132;-67
2023/06/08 12:07:57;;;;;;;3.63;0.93;;;25.00;90.40;;;;;;5030339;28;20040;-67
2023/06/08 12:10:30;;;;;;;2.30;1.10;;;25.20;90.10;;;;;;5047149;28;20103;-68
2023/06/08 12:12:56;;;;;;;5.25;1.33;;;25.30;90.20;;;;;;5047155;28;20040;-67
2023/06/08 12:15:22;;;;;;;1.80;0.75;;;25.40;90.10;;;;;;5054280;28;20044;-68
2023/06/08 12:17:48;;;;;;;7.22;1.20;;;25.60;90.00;;;;;;5047266;28;20037;-67
2023/06/08 12:20:15;;;;;;;2.25;0.88;;;25.80;89.70;;;;;;5046690;28;20043;-67
2023/06/08 12:22:41;;;;;;;4.82;1.23;;;25.80;89.90;;;;;;5047205;28;20048;-67
2023/06/08 12:25:07;;;;;;;2.10;0.80;;;25.80;89.50;;;;;;5047037;28;20044;-67
2023/06/08 12:27:37;;;;;;;1.98;1.00;;;25.80;90.00;;;;;;5047538;28;20486;-67
2023/06/08 12:30:08;;;;;;;3.95;1.10;;;25.80;90.00;;;;;;5046747;28;20068;-67
2023/06/08 12:32:34;;;;;;;4.85;1.10;;;25.90;90.00;;;;;;5030431;28;20387;-67
2023/06/08 12:35:00;;;;;;;2.25;1.20;;;26.00;90.10;;;;;;5029917;28;20041;-67
2023/06/08 12:37:27;;;;;;;1.98;1.00;;;26.10;90.00;;;;;;5048404;28;20036;-66
2023/06/08 12:39:53;;;;;;;2.90;0.90;;;26.00;89.00;;;;;;5046629;28;20241;-67
2023/06/08 12:42:20;;;;;;;2.10;1.20;;;26.00;89.90;;;;;;5029566;28;20044;-67
2023/06/08 12:44:47;;;;;;;4.57;1.20;;;26.00;89.50;;;;;;5047993;28;20060;-66
2023/06/08 12:47:13;;;;;;;4.32;1.05;;;26.00;89.30;;;;;;5046690;28;20080;-66
2023/06/08 12:49:41;;;;;;;3.00;1.20;;;25.90;89.00;;;;;;5031141;28;20389;-68